Time;durP1;ratioP1;P1;durP2;ratioP2;P2;SDS_P1;SDS_P2;PMS_P1;PMS_P2;Temp;Humidity;BMP_temperature;BMP_pressure;BME280_temperature;BME280_humidity;BME280_pressure;Samples;Min_cycle;Max_cycle;Signal;HPM_P1;HPM_P2
2021/08/24 00:02:17;;;;;;;12.90;8.25;;;;;;;19.11;62.68;100817.97;1764671;79;21042;-62
2021/08/24 00:04:44;;;;;;;13.58;8.23;;;;;;;19.11;62.82;100820.64;1765312;79;21510;-61
2021/08/24 00:07:10;;;;;;;10.90;8.25;;;;;;;19.14;62.83;100823.48;1758982;79;21102;-66
2021/08/24 00:09:37;;;;;;;12.55;8.50;;;;;;;19.10;62.94;100818.48;1772310;79;21015;-62
2021/08/24 00:12:06;;;;;;;11.63;8.50;;;;;;;19.05;63.35;100817.33;1761465;79;21062;-65
2021/08/24 00:14:33;;;;;;;12.55;8.90;;;;;;;19.00;63.65;100819.67;1768787;79;21066;-65
2021/08/24 00:16:59;;;;;;;13.25;8.18;;;;;;;19.01;63.73;100821.31;1765655;79;21133;-63
2021/08/24 00:19:26;;;;;;;13.48;8.65;;;;;;;19.00;63.92;100812.49;1738394;80;21020;-66
2021/08/24 00:21:52;;;;;;;13.95;8.88;;;;;;;19.00;64.23;100817.83;1767126;79;21031;-62
2021/08/24 00:24:19;;;;;;;14.50;8.73;;;;;;;18.99;64.36;100817.48;1768893;79;21040;-62
2021/08/24 00:26:45;;;;;;;13.00;8.75;;;;;;;18.96;64.51;100825.81;1756813;79;21058;-63
2021/08/24 00:29:12;;;;;;;13.20;8.93;;;;;;;18.90;64.63;100819.83;1763710;79;21086;-61
2021/08/24 00:31:40;;;;;;;11.80;8.80;;;;;;;18.87;64.73;100820.16;1760682;79;21014;-61
2021/08/24 00:34:06;;;;;;;13.88;8.75;;;;;;;18.83;64.93;100819.66;1769992;80;21409;-62
2021/08/24 00:36:33;;;;;;;14.03;9.00;;;;;;;18.85;65.12;100820.83;1761497;79;21047;-62
2021/08/24 00:38:59;;;;;;;12.68;8.33;;;;;;;18.87;64.88;100811.65;1763153;80;21024;-61
2021/08/24 00:41:28;;;;;;;12.75;9.00;;;;;;;18.92;64.69;100816.49;1756229;79;21414;-64
2021/08/24 00:43:55;;;;;;;11.85;8.93;;;;;;;18.98;64.62;100809.64;1754494;80;21035;-63
2021/08/24 00:46:50;;;;;;;11.55;8.85;;;;;;;19.00;64.31;100815.16;1763082;80;21521;-65
2021/08/24 00:49:25;;;;;;;13.65;9.00;;;;;;;19.01;64.21;100819.47;1752162;80;21863;-62
2021/08/24 00:52:10;;;;;;;15.50;9.30;;;;;;;19.01;63.78;100816.80;1757177;79;21700;-64
2021/08/24 00:54:37;;;;;;;14.00;9.43;;;;;;;18.99;63.48;100817.99;1765532;79;22352;-63
2021/08/24 00:57:20;;;;;;;16.67;9.58;;;;;;;18.96;63.51;100816.98;1706403;82;21010;-66
2021/08/24 00:59:49;;;;;;;12.68;9.28;;;;;;;18.92;63.62;100818.65;1731315;80;21063;-61
2021/08/24 01:02:16;;;;;;;12.05;8.93;;;;;;;18.94;63.61;100823.81;1742527;80;21121;-61
2021/08/24 01:04:42;;;;;;;13.70;8.55;;;;;;;18.98;64.12;100820.31;1757999;79;21065;-62
2021/08/24 01:07:25;;;;;;;12.50;8.95;;;;;;;19.01;64.43;100811.47;1752740;79;21145;-61
2021/08/24 01:10:00;;;;;;;12.00;8.48;;;;;;;19.05;64.60;100809.33;1753707;79;21387;-63
2021/08/24 01:13:01;;;;;;;12.23;9.33;;;;;;;19.05;64.65;100812.00;1755175;79;21060;-62
2021/08/24 01:15:57;;;;;;;11.38;9.18;;;;;;;19.06;64.66;100815.83;1759131;79;22428;-62
2021/08/24 01:18:34;;;;;;;11.78;9.08;;;;;;;19.04;64.69;100813.80;1763968;79;21089;-65
2021/08/24 01:21:32;;;;;;;14.75;9.35;;;;;;;19.00;64.92;100806.34;1744046;79;21698;-63
2021/08/24 01:24:36;;;;;;;14.05;8.43;;;;;;;18.97;65.13;100802.16;1758422;79;21109;-63
2021/08/24 01:27:12;;;;;;;19.17;8.83;;;;;;;19.00;65.09;100804.48;1746872;79;21102;-64
2021/08/24 01:30:20;;;;;;;14.03;9.18;;;;;;;19.07;65.03;100797.98;1751890;79;21048;-62
2021/08/24 01:33:16;;;;;;;14.13;9.60;;;;;;;19.14;64.87;100794.14;1767270;79;21040;-65
2021/08/24 01:36:21;;;;;;;15.05;9.38;;;;;;;19.18;65.18;100791.45;1760976;79;21139;-67
2021/08/24 01:40:17;;;;;;;13.30;8.75;;;;;;;19.20;65.26;100786.30;1838463;76;22803;-61
2021/08/24 01:42:44;;;;;;;12.88;9.68;;;;;;;19.15;65.25;100789.98;1800595;77;20983;-61
2021/08/24 01:45:21;;;;;;;14.10;9.78;;;;;;;19.16;65.30;100784.12;1780899;78;21031;-62
2021/08/24 01:47:59;;;;;;;13.65;9.30;;;;;;;19.14;65.29;100789.63;1781439;78;20986;-61
2021/08/24 01:50:33;;;;;;;13.62;8.85;;;;;;;19.16;65.16;100782.80;1747992;80;21010;-64
2021/08/24 01:53:10;;;;;;;11.43;8.55;;;;;;;19.20;65.03;100776.96;1744638;80;21105;-66
2021/08/24 01:55:41;;;;;;;13.95;9.45;;;;;;;19.24;65.04;100786.28;1739750;80;21013;-63
2021/08/24 01:58:29;;;;;;;13.08;8.80;;;;;;;19.27;65.11;100778.45;1736789;81;23379;-64
2021/08/24 02:00:56;;;;;;;14.58;8.55;;;;;;;19.25;65.01;100775.13;1713417;80;21608;-61
2021/08/24 02:03:35;;;;;;;11.78;8.90;;;;;;;19.21;65.02;100768.45;1749711;80;21505;-62
2021/08/24 02:06:19;;;;;;;12.07;8.68;;;;;;;19.18;64.93;100770.97;1744939;80;21117;-62
2021/08/24 02:08:49;;;;;;;12.97;9.73;;;;;;;19.15;64.98;100768.64;1744048;80;21003;-63
2021/08/24 02:11:15;;;;;;;12.58;8.48;;;;;;;19.09;64.91;100767.46;1715693;80;21213;-61
2021/08/24 02:13:45;;;;;;;12.28;8.43;;;;;;;19.07;64.98;100768.14;1747724;80;21121;-64
2021/08/24 02:16:19;;;;;;;14.33;9.23;;;;;;;19.11;64.90;100770.81;1749647;80;21086;-62
2021/08/24 02:18:54;;;;;;;13.10;8.70;;;;;;;19.12;64.81;100769.80;1709282;80;21052;-62
2021/08/24 02:21:25;;;;;;;15.83;10.15;;;;;;;19.15;64.80;100763.30;1742686;81;21619;-62
2021/08/24 02:23:51;;;;;;;15.60;10.13;;;;;;;19.14;64.80;100763.47;1741664;80;21137;-61
2021/08/24 02:26:18;;;;;;;12.55;9.53;;;;;;;19.09;64.76;100763.46;1742186;80;21030;-64
2021/08/24 02:28:54;;;;;;;13.00;9.65;;;;;;;19.01;64.54;100766.14;1742403;80;21083;-66
2021/08/24 02:31:44;;;;;;;12.40;9.78;;;;;;;18.97;64.50;100762.66;1693932;82;21679;-63
2021/08/24 02:34:19;;;;;;;13.10;9.63;;;;;;;18.90;64.45;100764.66;1714747;81;21296;-62
2021/08/24 02:37:19;;;;;;;14.45;10.32;;;;;;;18.82;64.58;100758.48;1695070;82;22412;-62
2021/08/24 02:40:03;;;;;;;14.80;9.38;;;;;;;18.78;64.69;100754.46;1700647;82;21302;-62
2021/08/24 02:42:35;;;;;;;13.72;9.25;;;;;;;18.81;64.84;100758.13;1683558;83;21138;-61
2021/08/24 02:45:08;;;;;;;14.03;9.00;;;;;;;18.81;64.96;100760.80;1764878;79;21110;-61
2021/08/24 02:47:35;;;;;;;14.38;9.40;;;;;;;18.79;64.90;100758.80;1733126;80;21051;-62
2021/08/24 02:50:04;;;;;;;12.78;8.85;;;;;;;18.75;64.77;100759.13;1762361;80;21514;-64
2021/08/24 02:52:32;;;;;;;13.25;9.78;;;;;;;18.71;64.76;100759.15;1764240;79;21067;-62
2021/08/24 02:55:01;;;;;;;14.55;9.95;;;;;;;18.65;64.82;100755.81;1760088;79;21083;-62
2021/08/24 02:57:27;;;;;;;12.68;8.78;;;;;;;18.61;64.95;100756.30;1760408;79;21024;-66
2021/08/24 02:59:54;;;;;;;13.90;8.85;;;;;;;18.56;65.14;100754.98;1737132;79;21094;-64
2021/08/24 03:02:21;;;;;;;15.93;10.00;;;;;;;18.51;65.36;100753.31;1765172;79;21070;-66
2021/08/24 03:04:48;;;;;;;12.98;9.95;;;;;;;18.49;65.51;100755.80;1759524;80;21035;-62
2021/08/24 03:07:25;;;;;;;14.60;9.73;;;;;;;18.54;65.61;100754.80;1762832;79;21816;-62
2021/08/24 03:09:52;;;;;;;12.47;10.20;;;;;;;18.58;65.64;100756.15;1743346;80;21055;-61
2021/08/24 03:12:44;;;;;;;20.48;10.88;;;;;;;18.62;65.60;100753.47;1762995;79;21082;-67
2021/08/24 03:15:18;;;;;;;13.03;9.58;;;;;;;18.63;65.76;100752.48;1755101;79;21545;-64
2021/08/24 03:18:03;;;;;;;15.68;10.20;;;;;;;18.63;65.81;100751.16;1759525;80;22205;-62
2021/08/24 03:20:34;;;;;;;14.93;10.35;;;;;;;18.62;65.80;100747.31;1759058;80;21043;-63
2021/08/24 03:23:00;;;;;;;13.80;9.38;;;;;;;18.62;65.82;100759.31;1761954;80;21108;-66
2021/08/24 03:25:27;;;;;;;12.58;9.88;;;;;;;18.61;65.93;100753.16;1754004;79;21051;-64
2021/08/24 03:27:54;;;;;;;13.13;9.15;;;;;;;18.68;65.74;100752.81;1759705;79;21919;-63
2021/08/24 03:30:21;;;;;;;13.45;9.43;;;;;;;18.74;65.52;100746.83;1741569;80;21110;-63
2021/08/24 03:32:47;;;;;;;15.23;10.75;;;;;;;18.80;65.35;100741.83;1760953;79;21540;-63
2021/08/24 03:35:15;;;;;;;12.28;9.35;;;;;;;18.83;65.17;100749.49;1740600;80;21074;-62
2021/08/24 03:37:43;;;;;;;15.23;10.45;;;;;;;18.83;65.19;100745.49;1723499;81;21059;-64
2021/08/24 03:40:11;;;;;;;14.95;9.83;;;;;;;18.81;65.39;100744.80;1754962;79;21142;-63
2021/08/24 03:42:38;;;;;;;14.58;10.98;;;;;;;18.81;65.35;100741.66;1732740;80;21062;-63
2021/08/24 03:45:06;;;;;;;13.68;10.72;;;;;;;18.79;65.27;100744.14;1759732;79;21028;-63
2021/08/24 03:47:32;;;;;;;15.83;10.82;;;;;;;18.75;64.70;100746.31;1753470;79;21264;-66
2021/08/24 03:49:59;;;;;;;12.88;9.55;;;;;;;18.75;64.35;100747.14;1759255;80;21092;-62
2021/08/24 03:52:26;;;;;;;14.90;10.32;;;;;;;18.77;64.20;100752.30;1739818;80;21272;-62
2021/08/24 03:54:53;;;;;;;16.37;10.08;;;;;;;18.78;64.24;100747.80;1740135;80;22439;-61
2021/08/24 03:57:19;;;;;;;16.70;10.20;;;;;;;18.76;64.46;100759.95;1758642;79;21051;-63
2021/08/24 03:59:45;;;;;;;14.85;10.45;;;;;;;18.74;64.49;100756.16;1754548;79;21608;-62
2021/08/24 04:02:12;;;;;;;15.10;11.10;;;;;;;18.73;64.49;100751.81;1759287;79;21046;-62
2021/08/24 04:04:38;;;;;;;16.27;10.53;;;;;;;18.73;64.46;100751.81;1755921;80;21533;-62
2021/08/24 04:07:05;;;;;;;14.30;11.55;;;;;;;18.71;64.65;100756.48;1767877;79;21011;-62
2021/08/24 04:09:32;;;;;;;13.88;10.15;;;;;;;18.77;64.75;100752.30;1756608;80;21528;-63
2021/08/24 04:11:58;;;;;;;16.00;11.25;;;;;;;18.85;64.65;100752.34;1766286;79;20869;-64
2021/08/24 04:14:25;;;;;;;14.18;10.48;;;;;;;18.91;64.49;100749.01;1763842;79;20947;-64
2021/08/24 04:16:51;;;;;;;15.90;11.22;;;;;;;18.96;64.45;100749.81;1749477;80;20993;-62
2021/08/24 04:19:18;;;;;;;15.15;11.60;;;;;;;18.98;64.62;100745.64;1754623;80;21004;-63
2021/08/24 04:21:44;;;;;;;19.23;12.53;;;;;;;19.01;64.52;100750.14;1733915;80;21086;-63
2021/08/24 04:24:11;;;;;;;14.70;11.55;;;;;;;19.02;64.42;100751.81;1756664;80;21068;-67
2021/08/24 04:26:38;;;;;;;16.52;11.45;;;;;;;19.05;64.35;100755.98;1743278;80;21413;-62
2021/08/24 04:29:04;;;;;;;14.40;11.73;;;;;;;19.05;64.45;100756.81;1753313;80;21055;-63
2021/08/24 04:31:31;;;;;;;18.73;11.65;;;;;;;19.10;64.58;100767.80;1732076;80;21032;-64
2021/08/24 04:33:58;;;;;;;18.50;12.05;;;;;;;19.18;64.37;100762.11;1758643;79;21564;-65
2021/08/24 04:36:24;;;;;;;15.15;12.13;;;;;;;19.22;63.97;100769.62;1758387;79;21058;-64
2021/08/24 04:38:51;;;;;;;14.95;11.63;;;;;;;19.24;63.99;100767.60;1756648;79;22487;-66
2021/08/24 04:41:17;;;;;;;18.65;12.78;;;;;;;19.26;63.96;100783.44;1761548;79;21148;-64
2021/08/24 04:43:43;;;;;;;17.32;12.70;;;;;;;19.24;64.05;100777.45;1770788;79;21756;-62
2021/08/24 04:46:09;;;;;;;18.32;13.00;;;;;;;19.26;64.04;100784.27;1743085;80;21043;-63
2021/08/24 04:48:36;;;;;;;18.77;12.05;;;;;;;19.29;64.24;100783.11;1771672;79;21550;-63
2021/08/24 04:51:02;;;;;;;17.55;13.68;;;;;;;19.32;64.49;100790.78;1771979;79;21055;-63
2021/08/24 04:53:29;;;;;;;16.75;12.68;;;;;;;19.38;64.34;100783.41;1772636;79;21879;-65
2021/08/24 04:55:57;;;;;;;16.85;12.25;;;;;;;19.46;64.31;100782.05;1768762;79;21034;-65
2021/08/24 04:58:24;;;;;;;16.77;12.30;;;;;;;19.56;64.39;100780.52;1769545;79;21038;-64
2021/08/24 05:00:50;;;;;;;17.25;13.10;;;;;;;19.62;64.43;100782.52;1763101;79;21517;-64
2021/08/24 05:03:16;;;;;;;16.80;12.70;;;;;;;19.65;64.47;100782.17;1767909;79;21083;-62
2021/08/24 05:05:43;;;;;;;18.65;13.43;;;;;;;19.73;64.63;100786.63;1771459;79;21066;-67
2021/08/24 05:08:09;;;;;;;18.40;13.43;;;;;;;19.80;64.48;100786.33;1766452;79;21303;-65
2021/08/24 05:10:37;;;;;;;20.40;14.85;;;;;;;19.86;64.38;100779.45;1770905;79;21057;-62
2021/08/24 05:13:03;;;;;;;21.05;15.25;;;;;;;19.93;64.14;100775.58;1771241;79;21023;-63
2021/08/24 05:15:32;;;;;;;22.05;14.75;;;;;;;20.03;64.05;100778.86;1767264;79;21011;-61
2021/08/24 05:17:59;;;;;;;20.85;15.23;;;;;;;20.17;63.74;100776.78;1740041;80;22033;-62
2021/08/24 05:20:25;;;;;;;19.23;15.20;;;;;;;20.31;63.39;100781.02;1763607;79;21039;-62
2021/08/24 05:22:52;;;;;;;20.88;15.53;;;;;;;20.41;63.27;100773.63;1765436;79;22012;-63
2021/08/24 05:25:21;;;;;;;23.32;17.55;;;;;;;20.47;63.05;100771.55;1738493;80;21058;-66
2021/08/24 05:27:48;;;;;;;20.60;15.93;;;;;;;20.54;62.74;100778.36;1767172;79;21058;-63
2021/08/24 05:30:17;;;;;;;22.10;15.38;;;;;;;20.58;62.61;100764.46;1771298;79;21368;-62
2021/08/24 05:32:43;;;;;;;19.90;15.15;;;;;;;20.65;62.27;100770.47;1765495;79;21011;-62
2021/08/24 05:35:10;;;;;;;20.10;15.00;;;;;;;20.68;62.28;100769.60;1768379;79;21027;-62
2021/08/24 05:37:36;;;;;;;19.65;14.13;;;;;;;20.71;61.92;100769.73;1772604;79;21058;-63
2021/08/24 05:40:04;;;;;;;20.15;14.68;;;;;;;20.78;61.56;100781.39;1763681;79;21059;-63
2021/08/24 05:42:32;;;;;;;19.65;15.32;;;;;;;20.86;61.28;100777.28;1755362;79;21085;-62
2021/08/24 05:44:58;;;;;;;20.45;14.87;;;;;;;20.93;61.31;100771.55;1763677;79;21572;-62
2021/08/24 05:47:27;;;;;;;17.45;15.23;;;;;;;20.96;61.22;100773.88;1762540;79;21541;-62
2021/08/24 05:49:55;;;;;;;23.30;15.38;;;;;;;21.03;61.33;100775.80;1764721;79;21537;-62
2021/08/24 05:52:21;;;;;;;23.67;19.10;;;;;;;21.06;61.57;100776.27;1762708;79;21015;-63
2021/08/24 05:54:49;;;;;;;18.77;14.53;;;;;;;21.11;61.54;100772.53;1699483;82;21099;-63
2021/08/24 05:57:17;;;;;;;18.57;14.28;;;;;;;21.17;61.08;100772.84;1760492;80;20956;-63
2021/08/24 05:59:44;;;;;;;21.82;13.85;;;;;;;21.21;60.89;100768.26;1758414;79;21292;-63
2021/08/24 06:02:10;;;;;;;21.35;13.30;;;;;;;21.26;61.12;100761.02;1754336;79;21041;-63
2021/08/24 06:04:36;;;;;;;19.55;14.38;;;;;;;21.36;61.12;100756.74;1753431;79;21042;-65
2021/08/24 06:07:03;;;;;;;19.05;15.65;;;;;;;21.48;60.99;100752.61;1740199;80;22604;-68
2021/08/24 06:09:30;;;;;;;35.80;26.62;;;;;;;21.58;60.72;100750.98;1740697;80;20965;-67
2021/08/24 06:11:56;;;;;;;19.77;13.78;;;;;;;21.68;60.58;100754.20;1764982;79;20974;-64
2021/08/24 06:14:23;;;;;;;22.07;17.30;;;;;;;21.75;60.06;100747.59;1737139;80;21424;-64
2021/08/24 06:16:55;;;;;;;21.05;15.08;;;;;;;21.82;59.72;100747.16;1724058;81;21860;-63
2021/08/24 06:19:19;;;;;;;23.10;17.02;;;;;;;21.89;59.83;100744.89;1737987;80;21028;-61
2021/08/24 06:21:45;;;;;;;20.55;13.98;;;;;;;21.93;59.67;100746.67;1762984;79;21050;-62
2021/08/24 06:24:12;;;;;;;20.12;14.55;;;;;;;21.94;58.97;100747.50;1758059;79;20883;-63
2021/08/24 06:26:38;;;;;;;27.73;23.10;;;;;;;21.97;58.96;100749.31;1755154;79;21039;-64
2021/08/24 06:29:05;;;;;;;19.42;14.65;;;;;;;21.98;59.29;100748.28;1757023;79;20996;-67
2021/08/24 06:31:31;;;;;;;21.50;15.72;;;;;;;22.02;59.70;100756.77;1759133;79;21084;-62
2021/08/24 06:33:58;;;;;;;20.88;15.63;;;;;;;22.10;59.03;100754.48;1759405;79;20968;-63
2021/08/24 06:36:24;;;;;;;21.97;16.40;;;;;;;22.11;59.04;100756.13;1744053;80;21970;-67
2021/08/24 06:38:51;;;;;;;20.23;16.15;;;;;;;22.12;58.89;100758.63;1739313;80;21047;-65
2021/08/24 06:41:17;;;;;;;21.17;14.53;;;;;;;22.16;58.91;100754.56;1764744;79;21518;-64
2021/08/24 06:43:44;;;;;;;22.17;15.75;;;;;;;22.21;58.77;100753.48;1762168;79;21119;-64
2021/08/24 06:46:11;;;;;;;17.60;12.07;;;;;;;22.26;58.32;100752.92;1762130;79;21047;-63
2021/08/24 06:48:38;;;;;;;18.07;12.55;;;;;;;22.34;58.24;100756.84;1762708;80;20888;-63
2021/08/24 06:51:04;;;;;;;17.23;13.10;;;;;;;22.37;58.29;100759.12;1757748;79;21003;-64
2021/08/24 06:53:30;;;;;;;16.35;12.85;;;;;;;22.40;58.55;100748.54;1759559;79;21003;-64
2021/08/24 06:55:57;;;;;;;15.90;11.57;;;;;;;22.47;58.28;100743.23;1736089;79;20983;-63
2021/08/24 06:58:23;;;;;;;13.95;10.25;;;;;;;22.57;58.43;100741.06;1756163;79;21352;-64
2021/08/24 07:00:49;;;;;;;18.35;13.03;;;;;;;22.70;58.41;100740.35;1760931;79;21293;-66
2021/08/24 07:03:16;;;;;;;19.87;15.00;;;;;;;22.80;58.22;100738.98;1763921;80;20978;-64
2021/08/24 07:05:46;;;;;;;18.30;12.15;;;;;;;22.88;57.96;100742.53;1753592;79;21042;-63
2021/08/24 07:08:12;;;;;;;16.48;11.73;;;;;;;22.93;57.55;100746.30;1700900;82;21963;-64
2021/08/24 07:10:41;;;;;;;15.72;10.80;;;;;;;22.99;57.35;100739.31;1761398;80;20945;-62
2021/08/24 07:13:07;;;;;;;17.77;11.85;;;;;;;23.05;56.99;100739.88;1757189;79;20969;-66
2021/08/24 07:15:36;;;;;;;16.50;12.68;;;;;;;23.10;57.30;100742.84;1758799;79;20980;-65
2021/08/24 07:18:02;;;;;;;14.07;11.00;;;;;;;23.12;56.96;100736.75;1753385;79;21000;-66
2021/08/24 07:20:28;;;;;;;18.60;11.18;;;;;;;23.16;56.79;100743.89;1759012;80;22292;-63
2021/08/24 07:22:57;;;;;;;15.50;10.65;;;;;;;23.20;55.83;100735.78;1758388;79;20976;-65
2021/08/24 07:25:25;;;;;;;17.15;11.95;;;;;;;23.24;56.04;100734.34;1743615;80;21054;-63
2021/08/24 07:27:53;;;;;;;13.83;10.25;;;;;;;23.24;56.11;100738.37;1753495;79;21071;-64
2021/08/24 07:30:19;;;;;;;14.68;9.63;;;;;;;23.26;55.96;100731.47;1763214;79;20984;-64
2021/08/24 07:32:45;;;;;;;14.80;9.63;;;;;;;23.34;56.08;100728.63;1757292;80;21056;-65
2021/08/24 07:35:13;;;;;;;13.80;9.95;;;;;;;23.43;56.42;100727.41;1762980;79;20984;-66
2021/08/24 07:37:39;;;;;;;11.38;8.80;;;;;;;23.55;56.23;100724.98;1758602;79;20913;-65
2021/08/24 07:40:07;;;;;;;13.50;9.33;;;;;;;23.67;55.87;100726.58;1745500;79;21959;-65
2021/08/24 07:42:33;;;;;;;13.90;9.85;;;;;;;23.78;55.34;100723.85;1764415;79;22366;-64
2021/08/24 07:44:59;;;;;;;12.05;8.43;;;;;;;23.88;54.92;100727.83;1754595;80;21188;-67
2021/08/24 07:47:26;;;;;;;13.10;8.30;;;;;;;23.95;54.54;100721.66;1761157;79;20994;-66
2021/08/24 07:49:52;;;;;;;13.85;8.55;;;;;;;24.04;54.33;100721.77;1761493;80;20995;-65
2021/08/24 07:52:19;;;;;;;11.35;7.95;;;;;;;24.10;54.03;100718.27;1762026;79;21004;-63
2021/08/24 07:54:47;;;;;;;9.68;6.95;;;;;;;24.19;53.11;100721.59;1761323;79;20947;-66
2021/08/24 07:57:13;;;;;;;12.53;7.17;;;;;;;24.30;52.61;100719.13;1751499;79;22220;-63
2021/08/24 07:59:39;;;;;;;10.55;7.47;;;;;;;24.37;51.77;100713.75;1733635;79;21151;-64
2021/08/24 08:02:06;;;;;;;12.78;7.22;;;;;;;24.43;50.84;100713.46;1762882;79;21012;-65
2021/08/24 08:04:32;;;;;;;8.93;5.85;;;;;;;24.47;51.24;100706.62;1731850;80;21079;-64
2021/08/24 08:06:59;;;;;;;8.38;6.58;;;;;;;24.52;49.74;100701.45;1754595;80;21999;-62
2021/08/24 08:09:25;;;;;;;9.75;5.47;;;;;;;24.59;49.10;100699.61;1757937;79;21092;-63
2021/08/24 08:11:52;;;;;;;6.05;3.55;;;;;;;24.67;49.70;100703.95;1700050;82;21479;-64
2021/08/24 08:14:20;;;;;;;6.28;3.30;;;;;;;24.76;46.29;100697.31;1759608;80;21003;-65
2021/08/24 08:16:46;;;;;;;8.93;3.30;;;;;;;24.84;43.36;100693.59;1762078;79;20964;-64
2021/08/24 08:19:13;;;;;;;7.10;2.72;;;;;;;24.91;39.53;100694.92;1737345;79;23722;-64
2021/08/24 08:21:39;;;;;;;6.92;2.60;;;;;;;25.00;40.07;100696.37;1734134;79;21066;-64
2021/08/24 08:24:06;;;;;;;6.55;3.17;;;;;;;25.07;40.43;100688.28;1758682;79;20950;-63
2021/08/24 08:26:32;;;;;;;5.30;2.72;;;;;;;25.16;39.33;100689.16;1757347;79;21028;-65
2021/08/24 08:29:02;;;;;;;23.92;18.65;;;;;;;25.22;38.63;100686.16;1717212;81;21125;-66
2021/08/24 08:31:27;;;;;;;9.33;4.62;;;;;;;25.29;38.30;100686.98;1740116;79;21118;-64
2021/08/24 08:33:54;;;;;;;6.90;5.15;;;;;;;25.34;38.18;100687.17;1734327;79;21185;-64
2021/08/24 08:36:20;;;;;;;8.10;4.95;;;;;;;25.39;38.29;100683.31;1736961;80;21735;-65
2021/08/24 08:38:47;;;;;;;6.92;4.35;;;;;;;25.46;38.39;100681.13;1760178;79;21052;-67
2021/08/24 08:41:37;;;;;;;7.25;3.90;;;;;;;25.53;38.59;100687.30;1758881;79;21146;-64
2021/08/24 08:44:26;;;;;;;7.08;3.42;;;;;;;25.59;38.25;100677.84;1697341;82;21068;-62
2021/08/24 08:47:09;;;;;;;5.85;2.83;;;;;;;25.66;37.22;100679.16;1748983;79;22792;-66
2021/08/24 08:50:13;;;;;;;6.83;3.77;;;;;;;25.72;36.62;100682.34;1721193;79;21093;-62
2021/08/24 08:53:16;;;;;;;7.92;3.40;;;;;;;25.80;37.59;100679.08;1767634;79;21533;-61
2021/08/24 08:56:00;;;;;;;6.20;3.05;;;;;;;25.88;35.93;100670.20;1775692;79;21075;-64
2021/08/24 08:59:15;;;;;;;6.00;3.00;;;;;;;25.96;36.16;100678.60;1740988;80;21577;-62
2021/08/24 09:02:01;;;;;;;6.78;3.10;;;;;;;26.01;36.66;100677.42;1763020;79;21953;-62
2021/08/24 09:04:38;;;;;;;5.47;2.90;;;;;;;26.07;35.40;100673.02;1767496;79;22209;-62
2021/08/24 09:07:16;;;;;;;7.87;3.55;;;;;;;26.12;34.62;100666.45;1769499;79;21086;-65
2021/08/24 09:09:42;;;;;;;6.58;2.85;;;;;;;26.17;34.55;100666.61;1720336;80;21054;-62
2021/08/24 09:12:09;;;;;;;5.83;2.92;;;;;;;26.27;34.85;100670.17;1740418;80;21039;-65
2021/08/24 09:14:44;;;;;;;6.17;2.92;;;;;;;26.36;34.76;100670.72;1764825;79;23050;-66
2021/08/24 09:17:24;;;;;;;8.00;3.25;;;;;;;26.45;34.92;100672.92;1762686;79;21129;-62
2021/08/24 09:20:25;;;;;;;11.90;3.90;;;;;;;26.55;33.91;100671.61;1765937;80;21089;-63
2021/08/24 09:22:51;;;;;;;5.80;3.00;;;;;;;26.60;34.22;100662.33;1671953;84;21552;-63
2021/08/24 09:25:24;;;;;;;5.75;3.42;;;;;;;26.69;34.02;100667.75;1744384;80;21086;-64
2021/08/24 09:28:14;;;;;;;8.00;2.58;;;;;;;26.74;34.66;100667.91;1764158;79;21227;-63
2021/08/24 09:30:42;;;;;;;5.33;2.40;;;;;;;26.82;34.15;100656.83;1738620;79;21336;-64
2021/08/24 09:33:10;;;;;;;5.58;2.92;;;;;;;26.88;34.05;100654.59;1762993;80;21439;-64
2021/08/24 09:35:42;;;;;;;5.58;3.00;;;;;;;26.95;33.86;100658.56;1740637;80;21073;-64
2021/08/24 09:38:18;;;;;;;5.95;3.37;;;;;;;26.99;33.86;100653.00;1762774;80;21047;-64
2021/08/24 09:40:57;;;;;;;5.58;2.47;;;;;;;27.05;33.57;100654.00;1732231;79;21394;-65
2021/08/24 09:43:33;;;;;;;6.70;2.75;;;;;;;27.11;32.82;100654.42;1757889;79;22434;-63
2021/08/24 09:46:25;;;;;;;9.20;2.45;;;;;;;27.17;32.70;100652.72;1763868;79;21058;-65
2021/08/24 09:49:04;;;;;;;5.83;2.10;;;;;;;27.16;32.30;100647.81;1755667;79;21035;-64
2021/08/24 09:51:44;;;;;;;5.75;2.40;;;;;;;27.13;32.26;100644.75;1759796;79;21080;-63
2021/08/24 09:54:22;;;;;;;5.83;2.30;;;;;;;27.16;32.24;100637.55;1728867;81;21160;-64
2021/08/24 09:56:59;;;;;;;5.67;2.72;;;;;;;27.24;32.92;100641.30;1752982;79;21083;-66
2021/08/24 09:59:30;;;;;;;5.37;2.08;;;;;;;27.33;33.69;100635.89;1695893;83;21549;-64
2021/08/24 10:01:57;;;;;;;4.37;2.12;;;;;;;27.43;32.02;100644.28;1721617;82;21016;-64
2021/08/24 10:04:24;;;;;;;7.92;2.50;;;;;;;27.50;31.07;100637.44;1722537;81;21039;-64
2021/08/24 10:07:04;;;;;;;5.75;2.83;;;;;;;27.54;31.55;100640.53;1760054;79;21770;-65
2021/08/24 10:09:37;;;;;;;5.90;2.40;;;;;;;27.65;32.30;100625.39;1766379;79;21992;-65
2021/08/24 10:12:30;;;;;;;5.03;2.20;;;;;;;27.75;31.97;100626.47;1761943;79;21078;-65
2021/08/24 10:14:58;;;;;;;7.28;2.20;;;;;;;27.85;30.84;100620.51;1756706;79;21679;-65
2021/08/24 10:17:34;;;;;;;6.15;2.70;;;;;;;27.91;30.44;100616.89;1732723;79;21160;-64
2021/08/24 10:20:04;;;;;;;4.20;2.22;;;;;;;27.94;31.00;100619.67;1755618;79;21137;-66
2021/08/24 10:22:33;;;;;;;4.12;2.17;;;;;;;28.03;31.73;100613.41;1689569;83;21095;-64
2021/08/24 10:25:08;;;;;;;6.42;2.47;;;;;;;28.17;32.04;100612.12;1684457;82;21637;-64
2021/08/24 10:27:45;;;;;;;5.55;2.12;;;;;;;28.32;31.37;100604.89;1757737;79;21054;-63
2021/08/24 10:30:16;;;;;;;4.80;2.05;;;;;;;28.43;31.96;100603.23;1756000;79;21047;-65
2021/08/24 10:32:56;;;;;;;5.50;2.52;;;;;;;28.48;30.84;100601.99;1758217;79;21468;-65
2021/08/24 10:35:29;;;;;;;4.70;2.55;;;;;;;28.50;31.38;100605.31;1756641;79;21122;-65
2021/08/24 10:37:57;;;;;;;5.92;2.80;;;;;;;28.54;31.55;100601.06;1756773;79;21896;-62
2021/08/24 10:40:32;;;;;;;7.17;3.70;;;;;;;28.58;32.26;100598.73;1759587;79;22550;-64
2021/08/24 10:43:15;;;;;;;6.03;2.60;;;;;;;28.60;32.01;100600.69;1691197;82;21138;-63
2021/08/24 10:45:47;;;;;;;7.97;3.35;;;;;;;28.61;31.96;100595.02;1715844;81;21229;-68
2021/08/24 10:48:21;;;;;;;10.35;4.33;;;;;;;28.67;32.13;100590.02;1759205;79;21876;-63
2021/08/24 10:50:59;;;;;;;30.52;14.10;;;;;;;28.75;31.71;100589.34;1763111;79;21451;-64
2021/08/24 10:53:49;;;;;;;7.12;2.90;;;;;;;28.79;32.09;100588.63;1767522;79;21066;-64
2021/08/24 10:56:42;;;;;;;9.05;4.05;;;;;;;28.85;31.32;100582.78;1765001;79;21347;-64
2021/08/24 10:59:23;;;;;;;5.58;3.00;;;;;;;28.88;30.51;100574.18;1754605;80;21041;-64
2021/08/24 11:02:03;;;;;;;7.85;3.25;;;;;;;28.87;31.37;100572.02;1738220;80;21063;-64
2021/08/24 11:04:44;;;;;;;5.70;2.58;;;;;;;28.89;31.00;100575.84;1737409;80;21004;-63
2021/08/24 11:08:00;;;;;;;4.92;2.45;;;;;;;28.88;30.46;100570.96;1737640;81;21070;-63
2021/08/24 11:10:41;;;;;;;5.45;2.50;;;;;;;28.90;30.64;100572.08;1761660;79;21110;-65
2021/08/24 11:13:42;;;;;;;6.53;3.00;;;;;;;28.91;30.56;100569.11;1727670;79;23170;-64
2021/08/24 11:16:35;;;;;;;7.60;3.20;;;;;;;28.97;29.71;100565.17;1744661;79;21070;-63
2021/08/24 11:19:28;;;;;;;5.05;2.75;;;;;;;28.96;28.82;100567.58;1763387;79;22493;-64
2021/08/24 11:22:09;;;;;;;8.08;2.77;;;;;;;28.93;28.77;100564.80;1764046;79;21031;-63
2021/08/24 11:24:57;;;;;;;6.45;2.70;;;;;;;28.94;28.93;100558.34;1739554;79;21478;-64
2021/08/24 11:27:41;;;;;;;6.83;2.70;;;;;;;29.00;29.24;100559.25;1733808;79;22167;-66
2021/08/24 11:30:27;;;;;;;12.25;4.22;;;;;;;29.06;29.89;100554.23;1761808;79;22472;-64
2021/08/24 11:32:57;;;;;;;8.88;3.40;;;;;;;29.09;28.84;100561.34;1758190;79;21082;-63
2021/08/24 11:35:48;;;;;;;5.22;3.08;;;;;;;29.11;28.54;100550.27;1727928;79;22344;-63
2021/08/24 11:38:22;;;;;;;4.47;2.22;;;;;;;29.17;29.86;100551.20;1760167;79;21035;-63
2021/08/24 11:41:02;;;;;;;7.45;3.33;;;;;;;29.29;28.97;100549.28;1762470;79;21148;-64
2021/08/24 11:44:01;;;;;;;5.25;2.85;;;;;;;29.34;30.11;100541.23;1747190;80;21557;-65